sensor_id;sensor_type;location;lat;lon;timestamp;pressure;altitude;pressure_sealevel;temperature;humidity
32251;BME280;41295;48.518;9.206;2023-05-12T00:01:39;96889.19;;;13.32;70.86
32251;BME280;41295;48.518;9.206;2023-05-12T00:03:42;96891.81;;;13.32;71.07
32251;BME280;41295;48.518;9.206;2023-05-12T00:05:45;96890.94;;;13.31;71.24
32251;BME280;41295;48.518;9.206;2023-05-12T00:07:47;96883.19;;;13.30;70.97
32251;BME280;41295;48.518;9.206;2023-05-12T00:09:50;96892.75;;;13.31;70.98
32251;BME280;41295;48.518;9.206;2023-05-12T00:11:52;96883.19;;;13.30;71.15
32251;BME280;41295;48.518;9.206;2023-05-12T00:13:55;96877.19;;;13.28;70.90
32251;BME280;41295;48.518;9.206;2023-05-12T00:15:58;96879.81;;;13.28;70.81
32251;BME280;41295;48.518;9.206;2023-05-12T00:18:02;96876.44;;;13.26;70.73
32251;BME280;41295;48.518;9.206;2023-05-12T00:20:06;96877.38;;;13.25;70.89
32251;BME280;41295;48.518;9.206;2023-05-12T00:22:08;96871.44;;;13.21;71.04
32251;BME280;41295;48.518;9.206;2023-05-12T00:24:12;96875.81;;;13.20;71.29
32251;BME280;41295;48.518;9.206;2023-05-12T00:26:14;96874.06;;;13.21;71.17
32251;BME280;41295;48.518;9.206;2023-05-12T00:28:17;96869.69;;;13.21;71.26
32251;BME280;41295;48.518;9.206;2023-05-12T00:30:20;96875.00;;;13.20;71.24
32251;BME280;41295;48.518;9.206;2023-05-12T00:32:23;96872.47;;;13.18;71.35
32251;BME280;41295;48.518;9.206;2023-05-12T00:34:28;96869.94;;;13.17;71.26
32251;BME280;41295;48.518;9.206;2023-05-12T00:36:31;96868.31;;;13.14;71.18
32251;BME280;41295;48.518;9.206;2023-05-12T00:38:33;96868.31;;;13.14;71.02
32251;BME280;41295;48.518;9.206;2023-05-12T00:40:38;96877.25;;;13.10;71.38
32251;BME280;41295;48.518;9.206;2023-05-12T00:42:41;96871.53;;;13.03;71.29
32251;BME280;41295;48.518;9.206;2023-05-12T00:44:43;96864.72;;;12.83;71.48
32251;BME280;41295;48.518;9.206;2023-05-12T00:46:47;96872.59;;;12.83;72.30
32251;BME280;41295;48.518;9.206;2023-05-12T00:48:50;96867.53;;;12.80;72.72
32251;BME280;41295;48.518;9.206;2023-05-12T00:50:55;96871.00;;;12.80;72.59
32251;BME280;41295;48.518;9.206;2023-05-12T00:52:59;96868.00;;;12.70;72.36
32251;BME280;41295;48.518;9.206;2023-05-12T00:55:03;96870.03;;;12.65;73.38
32251;BME280;41295;48.518;9.206;2023-05-12T00:57:07;96865.13;;;12.59;74.00
32251;BME280;41295;48.518;9.206;2023-05-12T00:59:09;96863.50;;;12.56;73.94
32251;BME280;41295;48.518;9.206;2023-05-12T01:01:12;96865.44;;;12.53;74.20
32251;BME280;41295;48.518;9.206;2023-05-12T01:03:15;96870.59;;;12.54;74.02
32251;BME280;41295;48.518;9.206;2023-05-12T01:05:18;96865.44;;;12.53;74.35
32251;BME280;41295;48.518;9.206;2023-05-12T01:07:24;96865.69;;;12.48;73.72
32251;BME280;41295;48.518;9.206;2023-05-12T01:09:27;96868.81;;;12.55;74.16
32251;BME280;41295;48.518;9.206;2023-05-12T01:11:29;96869.16;;;12.48;72.86
32251;BME280;41295;48.518;9.206;2023-05-12T01:13:32;96867.31;;;12.50;73.48
32251;BME280;41295;48.518;9.206;2023-05-12T01:15:36;96871.50;;;12.53;73.58
32251;BME280;41295;48.518;9.206;2023-05-12T01:17:52;96868.03;;;12.53;73.16
32251;BME280;41295;48.518;9.206;2023-05-12T01:19:59;96866.38;;;12.51;73.42
32251;BME280;41295;48.518;9.206;2023-05-12T01:22:03;96860.97;;;12.55;73.56
32251;BME280;41295;48.518;9.206;2023-05-12T01:24:08;96864.34;;;12.57;73.30
32251;BME280;41295;48.518;9.206;2023-05-12T01:26:14;96857.31;;;12.41;72.37
32251;BME280;41295;48.518;9.206;2023-05-12T01:28:17;96867.34;;;12.49;73.80
32251;BME280;41295;48.518;9.206;2023-05-12T01:30:21;96868.03;;;12.53;73.66
32251;BME280;41295;48.518;9.206;2023-05-12T01:32:25;96866.06;;;12.58;73.00
32251;BME280;41295;48.518;9.206;2023-05-12T01:34:28;96865.91;;;12.61;73.13
32251;BME280;41295;48.518;9.206;2023-05-12T01:36:31;96861.59;;;12.42;73.23
32251;BME280;41295;48.518;9.206;2023-05-12T01:38:33;96863.94;;;12.48;73.19
32251;BME280;41295;48.518;9.206;2023-05-12T01:40:36;96862.00;;;12.52;73.14
32251;BME280;41295;48.518;9.206;2023-05-12T01:42:41;96864.34;;;12.57;73.41
32251;BME280;41295;48.518;9.206;2023-05-12T01:44:43;96866.72;;;12.61;72.62
32251;BME280;41295;48.518;9.206;2023-05-12T01:46:46;96858.44;;;12.53;71.57
32251;BME280;41295;48.518;9.206;2023-05-12T01:48:50;96862.69;;;12.56;72.87
32251;BME280;41295;48.518;9.206;2023-05-12T01:50:52;96869.59;;;12.57;72.87
32251;BME280;41295;48.518;9.206;2023-05-12T01:52:55;96864.34;;;12.57;73.09
32251;BME280;41295;48.518;9.206;2023-05-12T01:54:57;96870.34;;;12.59;73.00
32251;BME280;41295;48.518;9.206;2023-05-12T01:57:00;96864.09;;;12.61;72.87
32251;BME280;41295;48.518;9.206;2023-05-12T01:59:04;96867.50;;;12.63;72.64
32251;BME280;41295;48.518;9.206;2023-05-12T02:01:06;96870.03;;;12.65;73.12
32251;BME280;41295;48.518;9.206;2023-05-12T02:03:09;96867.25;;;12.68;73.09
32251;BME280;41295;48.518;9.206;2023-05-12T02:05:12;96869.78;;;12.70;72.70
32251;BME280;41295;48.518;9.206;2023-05-12T02:07:16;96865.47;;;12.69;72.02
32251;BME280;41295;48.518;9.206;2023-05-12T02:09:18;96871.56;;;12.69;72.36
32251;BME280;41295;48.518;9.206;2023-05-12T02:11:22;96868.09;;;12.69;72.72
32251;BME280;41295;48.518;9.206;2023-05-12T02:13:25;96868.00;;;12.70;72.47
32251;BME280;41295;48.518;9.206;2023-05-12T02:15:30;96869.72;;;12.71;72.97
32251;BME280;41295;48.518;9.206;2023-05-12T02:17:32;96860.09;;;12.72;72.78
32251;BME280;41295;48.518;9.206;2023-05-12T02:19:35;96858.22;;;12.74;72.82
32251;BME280;41295;48.518;9.206;2023-05-12T02:21:38;96867.59;;;12.78;72.56
32251;BME280;41295;48.518;9.206;2023-05-12T02:23:40;96862.56;;;12.75;72.64
32251;BME280;41295;48.518;9.206;2023-05-12T02:25:43;96860.84;;;12.74;72.73
32251;BME280;41295;48.518;9.206;2023-05-12T02:27:45;96862.63;;;12.73;72.95
32251;BME280;41295;48.518;9.206;2023-05-12T02:29:48;96859.94;;;12.75;72.94
32251;BME280;41295;48.518;9.206;2023-05-12T02:31:52;96861.53;;;12.78;72.89
32251;BME280;41295;48.518;9.206;2023-05-12T02:33:54;96867.59;;;12.78;72.82
32251;BME280;41295;48.518;9.206;2023-05-12T02:35:57;96865.75;;;12.80;72.48
32251;BME280;41295;48.518;9.206;2023-05-12T02:38:00;96870.91;;;12.82;72.61
32251;BME280;41295;48.518;9.206;2023-05-12T02:40:03;96870.91;;;12.82;72.49
32251;BME280;41295;48.518;9.206;2023-05-12T02:42:06;96871.00;;;12.80;72.74
32251;BME280;41295;48.518;9.206;2023-05-12T02:44:09;96864.00;;;12.81;72.73
32251;BME280;41295;48.518;9.206;2023-05-12T02:46:11;96864.00;;;12.81;72.84
32251;BME280;41295;48.518;9.206;2023-05-12T02:48:15;96861.28;;;12.82;72.65
32251;BME280;41295;48.518;9.206;2023-05-12T02:50:18;96856.47;;;12.74;72.42
32251;BME280;41295;48.518;9.206;2023-05-12T02:52:22;96860.78;;;12.75;72.76
32251;BME280;41295;48.518;9.206;2023-05-12T02:54:24;96854.78;;;12.73;73.07
32251;BME280;41295;48.518;9.206;2023-05-12T02:56:27;96860.03;;;12.73;73.34
32251;BME280;41295;48.518;9.206;2023-05-12T02:58:33;96868.69;;;12.74;73.34
32251;BME280;41295;48.518;9.206;2023-05-12T03:00:36;96862.56;;;12.75;73.30
32251;BME280;41295;48.518;9.206;2023-05-12T03:02:38;96866.84;;;12.76;73.30
32251;BME280;41295;48.518;9.206;2023-05-12T03:04:43;96876.41;;;12.77;73.14
32251;BME280;41295;48.518;9.206;2023-05-12T03:06:45;96870.31;;;12.77;73.11
32251;BME280;41295;48.518;9.206;2023-05-12T03:08:48;96864.13;;;12.78;72.93
32251;BME280;41295;48.518;9.206;2023-05-12T03:10:51;96865.06;;;12.77;73.00
32251;BME280;41295;48.518;9.206;2023-05-12T03:12:53;96862.56;;;12.75;73.10
32251;BME280;41295;48.518;9.206;2023-05-12T03:14:56;96858.31;;;12.72;72.91
32251;BME280;41295;48.518;9.206;2023-05-12T03:16:59;96863.53;;;12.72;73.02
32251;BME280;41295;48.518;9.206;2023-05-12T03:19:01;96865.38;;;12.70;73.20
32251;BME280;41295;48.518;9.206;2023-05-12T03:21:07;96866.25;;;12.71;73.36
32251;BME280;41295;48.518;9.206;2023-05-12T03:23:09;96858.41;;;12.71;73.15
32251;BME280;41295;48.518;9.206;2023-05-12T03:25:12;96862.78;;;12.70;73.33
32251;BME280;41295;48.518;9.206;2023-05-12T03:27:16;96860.41;;;12.66;73.05
32251;BME280;41295;48.518;9.206;2023-05-12T03:29:18;96853.59;;;12.63;73.17
32251;BME280;41295;48.518;9.206;2023-05-12T03:31:21;96857.78;;;12.66;73.22
32251;BME280;41295;48.518;9.206;2023-05-12T03:33:23;96856.94;;;12.65;73.55
32251;BME280;41295;48.518;9.206;2023-05-12T03:35:26;96860.41;;;12.66;73.99
32251;BME280;41295;48.518;9.206;2023-05-12T03:37:30;96859.50;;;12.67;73.86
32251;BME280;41295;48.518;9.206;2023-05-12T03:39:33;96857.72;;;12.67;73.77
32251;BME280;41295;48.518;9.206;2023-05-12T03:41:36;96858.47;;;12.69;73.79
32251;BME280;41295;48.518;9.206;2023-05-12T03:43:38;96854.09;;;12.70;73.71
32251;BME280;41295;48.518;9.206;2023-05-12T03:45:41;96856.63;;;12.71;73.30
32251;BME280;41295;48.518;9.206;2023-05-12T03:47:43;96856.63;;;12.71;73.55
32251;BME280;41295;48.518;9.206;2023-05-12T03:49:46;96854.88;;;12.72;73.43
32251;BME280;41295;48.518;9.206;2023-05-12T03:51:51;96855.78;;;12.71;73.55
32251;BME280;41295;48.518;9.206;2023-05-12T03:53:55;96859.25;;;12.71;73.61
32251;BME280;41295;48.518;9.206;2023-05-12T03:56:02;96849.69;;;12.70;73.37
32251;BME280;41295;48.518;9.206;2023-05-12T03:58:07;96853.25;;;12.69;73.49
32251;BME280;41295;48.518;9.206;2023-05-12T04:00:11;96853.16;;;12.71;73.77
32251;BME280;41295;48.518;9.206;2023-05-12T04:02:13;96850.53;;;12.71;73.61
32251;BME280;41295;48.518;9.206;2023-05-12T04:04:16;96862.72;;;12.72;73.69
32251;BME280;41295;48.518;9.206;2023-05-12T04:06:19;96850.47;;;12.72;73.34
32251;BME280;41295;48.518;9.206;2023-05-12T04:08:21;96847.94;;;12.71;73.32
32251;BME280;41295;48.518;9.206;2023-05-12T04:10:25;96854.00;;;12.71;73.72
32251;BME280;41295;48.518;9.206;2023-05-12T04:12:28;96852.41;;;12.69;73.69
32251;BME280;41295;48.518;9.206;2023-05-12T04:14:31;96850.97;;;12.63;73.28
32251;BME280;41295;48.518;9.206;2023-05-12T04:16:43;96849.34;;;12.60;73.48
32251;BME280;41295;48.518;9.206;2023-05-12T04:18:46;96850.38;;;12.58;73.75
32251;BME280;41295;48.518;9.206;2023-05-12T04:20:49;96855.59;;;12.58;73.96
32251;BME280;41295;48.518;9.206;2023-05-12T04:22:52;96854.59;;;12.60;73.67
32251;BME280;41295;48.518;9.206;2023-05-12T04:24:54;96854.59;;;12.60;73.55
32251;BME280;41295;48.518;9.206;2023-05-12T04:26:58;96850.97;;;12.63;73.12
32251;BME280;41295;48.518;9.206;2023-05-12T04:29:01;96857.44;;;12.56;72.50
32251;BME280;41295;48.518;9.206;2023-05-12T04:31:04;96856.69;;;12.54;72.97
32251;BME280;41295;48.518;9.206;2023-05-12T04:33:07;96865.50;;;12.51;72.97
32251;BME280;41295;48.518;9.206;2023-05-12T04:35:09;96863.84;;;12.50;73.18
32251;BME280;41295;48.518;9.206;2023-05-12T04:37:12;96858.53;;;12.51;73.05
32251;BME280;41295;48.518;9.206;2023-05-12T04:39:14;96859.28;;;12.54;73.05
32251;BME280;41295;48.518;9.206;2023-05-12T04:41:17;96868.91;;;12.53;73.24
32251;BME280;41295;48.518;9.206;2023-05-12T04:43:21;96864.44;;;12.55;73.42
32251;BME280;41295;48.518;9.206;2023-05-12T04:45:26;96873.06;;;12.57;73.30
32251;BME280;41295;48.518;9.206;2023-05-12T04:47:29;96866.88;;;12.58;73.47
32251;BME280;41295;48.518;9.206;2023-05-12T04:49:32;96870.28;;;12.60;73.34
32251;BME280;41295;48.518;9.206;2023-05-12T04:51:34;96878.88;;;12.62;73.23
32251;BME280;41295;48.518;9.206;2023-05-12T04:53:42;96875.59;;;12.59;72.41
32251;BME280;41295;48.518;9.206;2023-05-12T04:55:45;96875.59;;;12.59;73.16
32251;BME280;41295;48.518;9.206;2023-05-12T04:57:47;96875.59;;;12.59;73.25
32251;BME280;41295;48.518;9.206;2023-05-12T04:59:51;96876.44;;;12.59;73.16
32251;BME280;41295;48.518;9.206;2023-05-12T05:01:54;96875.41;;;12.62;73.18
32251;BME280;41295;48.518;9.206;2023-05-12T05:03:56;96876.19;;;12.64;73.46
32251;BME280;41295;48.518;9.206;2023-05-12T05:05:59;96879.56;;;12.66;73.53
32251;BME280;41295;48.518;9.206;2023-05-12T05:08:02;96875.94;;;12.69;73.40
32251;BME280;41295;48.518;9.206;2023-05-12T05:10:05;96876.34;;;12.61;72.78
32251;BME280;41295;48.518;9.206;2023-05-12T05:12:08;96878.03;;;12.62;73.55
32251;BME280;41295;48.518;9.206;2023-05-12T05:14:11;96878.97;;;12.61;72.98
32251;BME280;41295;48.518;9.206;2023-05-12T05:16:15;96883.19;;;12.63;73.37
32251;BME280;41295;48.518;9.206;2023-05-12T05:18:18;96884.81;;;12.66;73.37
32251;BME280;41295;48.518;9.206;2023-05-12T05:20:24;96886.41;;;12.69;73.32
32251;BME280;41295;48.518;9.206;2023-05-12T05:22:29;96888.94;;;12.70;72.97
32251;BME280;41295;48.518;9.206;2023-05-12T05:24:32;96887.09;;;12.72;73.24
32251;BME280;41295;48.518;9.206;2023-05-12T05:26:34;96893.09;;;12.74;73.39
32251;BME280;41295;48.518;9.206;2023-05-12T05:28:37;96891.25;;;12.77;73.21
32251;BME280;41295;48.518;9.206;2023-05-12T05:30:40;96894.63;;;12.79;73.09
32251;BME280;41295;48.518;9.206;2023-05-12T05:32:44;96895.69;;;12.74;71.96
32251;BME280;41295;48.518;9.206;2023-05-12T05:34:47;96894.94;;;12.72;72.70
32251;BME280;41295;48.518;9.206;2023-05-12T05:36:49;96895.44;;;12.63;72.56
32251;BME280;41295;48.518;9.206;2023-05-12T05:38:52;96894.59;;;12.62;72.89
32251;BME280;41295;48.518;9.206;2023-05-12T05:40:55;96889.34;;;12.62;73.03
32251;BME280;41295;48.518;9.206;2023-05-12T05:42:57;96897.03;;;12.66;73.27
32251;BME280;41295;48.518;9.206;2023-05-12T05:45:00;96899.41;;;12.70;72.74
32251;BME280;41295;48.518;9.206;2023-05-12T05:47:02;96882.97;;;12.68;72.63
32251;BME280;41295;48.518;9.206;2023-05-12T05:49:07;96889.78;;;12.71;72.93
32251;BME280;41295;48.518;9.206;2023-05-12T05:51:09;96898.41;;;12.73;72.92
32251;BME280;41295;48.518;9.206;2023-05-12T05:53:12;96902.56;;;12.77;73.00
32251;BME280;41295;48.518;9.206;2023-05-12T05:55:15;96900.72;;;12.79;72.95
32251;BME280;41295;48.518;9.206;2023-05-12T05:57:18;96902.31;;;12.82;72.81
32251;BME280;41295;48.518;9.206;2023-05-12T05:59:21;96898.69;;;12.84;72.53
32251;BME280;41295;48.518;9.206;2023-05-12T06:01:24;96902.91;;;12.87;72.12
32251;BME280;41295;48.518;9.206;2023-05-12T06:03:27;96903.75;;;12.87;72.19
32251;BME280;41295;48.518;9.206;2023-05-12T06:05:31;96904.44;;;12.91;72.04
32251;BME280;41295;48.518;9.206;2023-05-12T06:07:34;96902.91;;;12.87;71.58
32251;BME280;41295;48.518;9.206;2023-05-12T06:09:36;96911.53;;;12.89;71.53
32251;BME280;41295;48.518;9.206;2023-05-12T06:11:39;96910.53;;;12.58;72.19
32251;BME280;41295;48.518;9.206;2023-05-12T06:13:42;96909.19;;;12.67;72.68
32251;BME280;41295;48.518;9.206;2023-05-12T06:15:44;96915.88;;;12.55;72.38
32251;BME280;41295;48.518;9.206;2023-05-12T06:17:47;96914.03;;;12.57;72.42
32251;BME280;41295;48.518;9.206;2023-05-12T06:19:49;96916.41;;;12.61;72.70
32251;BME280;41295;48.518;9.206;2023-05-12T06:21:53;96918.63;;;12.69;72.99
32251;BME280;41295;48.518;9.206;2023-05-12T06:23:56;96910.63;;;12.72;72.85
32251;BME280;41295;48.518;9.206;2023-05-12T06:25:58;96908.34;;;12.66;71.60
32251;BME280;41295;48.518;9.206;2023-05-12T06:28:01;96920.97;;;12.75;72.22
32251;BME280;41295;48.518;9.206;2023-05-12T06:30:05;96914.78;;;12.77;72.29
32251;BME280;41295;48.518;9.206;2023-05-12T06:32:07;96917.16;;;12.81;71.83
32251;BME280;41295;48.518;9.206;2023-05-12T06:34:10;96919.63;;;12.84;72.12
32251;BME280;41295;48.518;9.206;2023-05-12T06:36:13;96917.59;;;12.90;72.07
32251;BME280;41295;48.518;9.206;2023-05-12T06:38:17;96917.44;;;12.93;71.63
32251;BME280;41295;48.518;9.206;2023-05-12T06:40:19;96911.59;;;12.87;70.96
32251;BME280;41295;48.518;9.206;2023-05-12T06:42:22;96916.66;;;12.91;71.77
32251;BME280;41295;48.518;9.206;2023-05-12T06:44:24;96919.03;;;12.95;71.71
32251;BME280;41295;48.518;9.206;2023-05-12T06:46:27;96915.91;;;12.89;70.72
32251;BME280;41295;48.518;9.206;2023-05-12T06:48:30;96919.13;;;12.94;71.32
32251;BME280;41295;48.518;9.206;2023-05-12T06:50:32;96922.59;;;12.94;71.35
32251;BME280;41295;48.518;9.206;2023-05-12T06:52:35;96925.41;;;12.73;71.42
32251;BME280;41295;48.518;9.206;2023-05-12T06:54:39;96919.03;;;12.61;72.66
32251;BME280;41295;48.518;9.206;2023-05-12T06:56:41;96916.19;;;12.66;73.43
32251;BME280;41295;48.518;9.206;2023-05-12T06:58:44;96910.63;;;12.72;73.54
32251;BME280;41295;48.518;9.206;2023-05-12T07:00:48;96915.47;;;12.80;73.35
32251;BME280;41295;48.518;9.206;2023-05-12T07:02:51;96915.06;;;12.88;73.13
32251;BME280;41295;48.518;9.206;2023-05-12T07:04:54;96915.72;;;12.75;72.17
32251;BME280;41295;48.518;9.206;2023-05-12T07:06:56;96915.81;;;12.90;72.63
32251;BME280;41295;48.518;9.206;2023-05-12T07:08:59;96917.34;;;12.94;72.34
32251;BME280;41295;48.518;9.206;2023-05-12T07:11:03;96917.19;;;12.97;72.13
32251;BME280;41295;48.518;9.206;2023-05-12T07:13:05;96914.25;;;13.04;72.56
32251;BME280;41295;48.518;9.206;2023-05-12T07:15:09;96913.81;;;13.11;72.75
32251;BME280;41295;48.518;9.206;2023-05-12T07:17:12;96912.06;;;13.12;71.95
32251;BME280;41295;48.518;9.206;2023-05-12T07:19:14;96915.28;;;13.17;72.69
32251;BME280;41295;48.518;9.206;2023-05-12T07:21:17;96914.97;;;13.23;72.92
32251;BME280;41295;48.518;9.206;2023-05-12T07:23:20;96920.88;;;13.27;72.56
32251;BME280;41295;48.518;9.206;2023-05-12T07:25:22;96919.66;;;13.33;72.58
32251;BME280;41295;48.518;9.206;2023-05-12T07:27:26;96920.00;;;13.27;71.45
32251;BME280;41295;48.518;9.206;2023-05-12T07:29:29;96911.31;;;13.26;72.21
32251;BME280;41295;48.518;9.206;2023-05-12T07:31:32;96911.91;;;13.31;72.26
32251;BME280;41295;48.518;9.206;2023-05-12T07:33:35;96908.19;;;13.35;71.67
32251;BME280;41295;48.518;9.206;2023-05-12T07:35:37;96911.41;;;13.41;71.79
32251;BME280;41295;48.518;9.206;2023-05-12T07:37:40;96909.63;;;13.41;71.34
32251;BME280;41295;48.518;9.206;2023-05-12T07:39:43;96905.16;;;13.43;71.01
32251;BME280;41295;48.518;9.206;2023-05-12T07:41:45;96913.69;;;13.47;70.97
32251;BME280;41295;48.518;9.206;2023-05-12T07:43:49;96908.69;;;13.42;69.77
32251;BME280;41295;48.518;9.206;2023-05-12T07:45:52;96911.13;;;13.45;69.95
32251;BME280;41295;48.518;9.206;2023-05-12T07:47:56;96908.19;;;13.52;70.54
32251;BME280;41295;48.518;9.206;2023-05-12T07:49:59;96907.97;;;13.56;70.88
32251;BME280;41295;48.518;9.206;2023-05-12T07:52:01;96910.34;;;13.61;70.45
32251;BME280;41295;48.518;9.206;2023-05-12T07:54:04;96907.44;;;13.66;70.05
32251;BME280;41295;48.518;9.206;2023-05-12T07:56:07;96910.75;;;13.69;69.90
32251;BME280;41295;48.518;9.206;2023-05-12T07:58:10;96903.56;;;13.73;69.42
32251;BME280;41295;48.518;9.206;2023-05-12T08:00:15;96905.78;;;13.65;68.36
32251;BME280;41295;48.518;9.206;2023-05-12T08:02:17;96909.31;;;13.64;68.93
32251;BME280;41295;48.518;9.206;2023-05-12T08:04:21;96910.56;;;13.73;69.23
32251;BME280;41295;48.518;9.206;2023-05-12T08:06:23;96915.47;;;13.79;69.12
32251;BME280;41295;48.518;9.206;2023-05-12T08:08:26;96908.19;;;13.84;68.83
32251;BME280;41295;48.518;9.206;2023-05-12T08:10:28;96900.41;;;13.82;67.76
32251;BME280;41295;48.518;9.206;2023-05-12T08:12:32;96908.59;;;13.92;68.23
32251;BME280;41295;48.518;9.206;2023-05-12T08:14:35;96907.31;;;14.00;68.33
32251;BME280;41295;48.518;9.206;2023-05-12T08:16:39;96910.69;;;14.02;67.97
32251;BME280;41295;48.518;9.206;2023-05-12T08:18:45;96909.75;;;14.03;68.08
32251;BME280;41295;48.518;9.206;2023-05-12T08:20:48;96907.22;;;14.01;67.86
32251;BME280;41295;48.518;9.206;2023-05-12T08:22:51;96902.63;;;14.05;67.83
32251;BME280;41295;48.518;9.206;2023-05-12T08:24:53;96906.22;;;14.04;68.15
32251;BME280;41295;48.518;9.206;2023-05-12T08:26:56;96898.81;;;14.11;68.64
32251;BME280;41295;48.518;9.206;2023-05-12T08:28:58;96907.44;;;14.13;68.75
32251;BME280;41295;48.518;9.206;2023-05-12T08:31:01;96913.69;;;14.10;67.59
32251;BME280;41295;48.518;9.206;2023-05-12T08:33:06;96905.59;;;14.15;67.92
32251;BME280;41295;48.518;9.206;2023-05-12T08:35:09;96914.13;;;14.18;67.97
32251;BME280;41295;48.518;9.206;2023-05-12T08:37:12;96902.50;;;14.23;68.18
32251;BME280;41295;48.518;9.206;2023-05-12T08:39:15;96910.19;;;14.26;67.68
32251;BME280;41295;48.518;9.206;2023-05-12T08:41:19;96915.19;;;14.30;67.19
32251;BME280;41295;48.518;9.206;2023-05-12T08:43:25;96915.44;;;14.26;66.30
32251;BME280;41295;48.518;9.206;2023-05-12T08:45:36;96917.69;;;14.32;66.90
32251;BME280;41295;48.518;9.206;2023-05-12T08:47:39;96915.09;;;14.32;67.56
32251;BME280;41295;48.518;9.206;2023-05-12T08:49:48;96915.75;;;14.36;67.62
32251;BME280;41295;48.518;9.206;2023-05-12T08:52:01;96913.88;;;14.38;67.38
32251;BME280;41295;48.518;9.206;2023-05-12T08:54:06;96915.66;;;14.37;67.27
32251;BME280;41295;48.518;9.206;2023-05-12T08:56:10;96913.78;;;14.39;67.15
32251;BME280;41295;48.518;9.206;2023-05-12T08:58:17;96912.75;;;14.42;67.09
32251;BME280;41295;48.518;9.206;2023-05-12T09:00:31;96911.81;;;14.43;66.76
32251;BME280;41295;48.518;9.206;2023-05-12T09:02:37;96909.00;;;14.46;66.85
32251;BME280;41295;48.518;9.206;2023-05-12T09:04:55;96920.03;;;14.37;66.63
32251;BME280;41295;48.518;9.206;2023-05-12T09:06:58;96912.94;;;14.39;67.00
32251;BME280;41295;48.518;9.206;2023-05-12T09:09:01;96913.88;;;14.38;66.99
32251;BME280;41295;48.518;9.206;2023-05-12T09:11:04;96920.56;;;14.43;67.17
32251;BME280;41295;48.518;9.206;2023-05-12T09:13:26;96907.78;;;14.37;65.72
32251;BME280;41295;48.518;9.206;2023-05-12T09:15:34;96918.00;;;14.42;66.46
32251;BME280;41295;48.518;9.206;2023-05-12T09:17:37;96917.06;;;14.43;67.04
32251;BME280;41295;48.518;9.206;2023-05-12T09:19:40;96917.56;;;14.50;67.11
32251;BME280;41295;48.518;9.206;2023-05-12T09:21:44;96912.22;;;14.51;67.30
32251;BME280;41295;48.518;9.206;2023-05-12T09:23:52;96915.41;;;14.57;67.57
32251;BME280;41295;48.518;9.206;2023-05-12T09:25:58;96915.22;;;14.60;67.45
32251;BME280;41295;48.518;9.206;2023-05-12T09:28:02;96919.53;;;14.61;67.22
32251;BME280;41295;48.518;9.206;2023-05-12T09:30:06;96920.09;;;14.66;66.96
32251;BME280;41295;48.518;9.206;2023-05-12T09:32:09;96914.66;;;14.69;66.62
32251;BME280;41295;48.518;9.206;2023-05-12T09:34:12;96916.28;;;14.72;66.48
32251;BME280;41295;48.518;9.206;2023-05-12T09:36:17;96904.72;;;14.74;66.60
32251;BME280;41295;48.518;9.206;2023-05-12T09:38:21;96905.28;;;14.79;66.72
32251;BME280;41295;48.518;9.206;2023-05-12T09:40:24;96912.25;;;14.81;66.37
32251;BME280;41295;48.518;9.206;2023-05-12T09:42:28;96912.19;;;14.82;65.69
32251;BME280;41295;48.518;9.206;2023-05-12T09:44:31;96909.34;;;14.85;65.53
32251;BME280;41295;48.518;9.206;2023-05-12T09:46:34;96914.59;;;14.85;65.14
32251;BME280;41295;48.518;9.206;2023-05-12T09:48:37;96911.13;;;14.85;64.69
32251;BME280;41295;48.518;9.206;2023-05-12T09:50:44;96908.25;;;14.89;65.24
32251;BME280;41295;48.518;9.206;2023-05-12T09:52:49;96911.63;;;14.91;65.32
32251;BME280;41295;48.518;9.206;2023-05-12T09:54:53;96913.19;;;14.94;65.47
32251;BME280;41295;48.518;9.206;2023-05-12T09:56:58;96915.63;;;14.97;65.22
32251;BME280;41295;48.518;9.206;2023-05-12T09:59:01;96907.75;;;14.97;64.87
32251;BME280;41295;48.518;9.206;2023-05-12T10:01:05;96901.03;;;14.93;64.47
32251;BME280;41295;48.518;9.206;2023-05-12T10:03:25;96904.31;;;14.97;64.12
32251;BME280;41295;48.518;9.206;2023-05-12T10:05:29;96912.19;;;14.97;63.76
32251;BME280;41295;48.518;9.206;2023-05-12T10:07:32;96910.38;;;14.97;63.87
32251;BME280;41295;48.518;9.206;2023-05-12T10:09:36;96912.28;;;14.95;64.31
32251;BME280;41295;48.518;9.206;2023-05-12T10:11:44;96911.13;;;14.99;64.33
32251;BME280;41295;48.518;9.206;2023-05-12T10:13:48;96905.72;;;15.02;64.41
32251;BME280;41295;48.518;9.206;2023-05-12T10:15:51;96902.78;;;15.07;64.49
32251;BME280;41295;48.518;9.206;2023-05-12T10:17:56;96907.94;;;15.09;64.11
32251;BME280;41295;48.518;9.206;2023-05-12T10:20:01;96904.47;;;15.08;63.79
32251;BME280;41295;48.518;9.206;2023-05-12T10:22:09;96909.34;;;15.14;63.51
32251;BME280;41295;48.518;9.206;2023-05-12T10:24:13;96911.03;;;15.15;63.39
32251;BME280;41295;48.518;9.206;2023-05-12T10:26:16;96899.69;;;15.15;63.26
32251;BME280;41295;48.518;9.206;2023-05-12T10:28:21;96901.28;;;15.18;63.45
32251;BME280;41295;48.518;9.206;2023-05-12T10:30:24;96904.66;;;15.20;63.76
32251;BME280;41295;48.518;9.206;2023-05-12T10:32:27;96905.78;;;15.15;62.64
32251;BME280;41295;48.518;9.206;2023-05-12T10:34:32;96904.56;;;15.21;62.68
32251;BME280;41295;48.518;9.206;2023-05-12T10:36:42;96905.41;;;15.22;62.67
32251;BME280;41295;48.518;9.206;2023-05-12T10:38:47;96905.41;;;15.22;62.46
32251;BME280;41295;48.518;9.206;2023-05-12T10:40:52;96902.69;;;15.23;63.03
32251;BME280;41295;48.518;9.206;2023-05-12T10:42:57;96905.59;;;15.19;62.97
32251;BME280;41295;48.518;9.206;2023-05-12T10:45:01;96905.59;;;15.19;63.38
32251;BME280;41295;48.518;9.206;2023-05-12T10:47:11;96904.66;;;15.20;65.09
32251;BME280;41295;48.518;9.206;2023-05-12T10:49:14;96910.00;;;15.18;66.46
32251;BME280;41295;48.518;9.206;2023-05-12T10:51:18;96906.63;;;15.16;67.49
32251;BME280;41295;48.518;9.206;2023-05-12T10:53:26;96913.75;;;15.14;67.94
32251;BME280;41295;48.518;9.206;2023-05-12T10:55:48;96914.88;;;15.10;68.66